Jamison, Pennsylvania
Current Conditions -  °F | °C
As of 3:54 AM on Sunday 23 Nov 2014 (Local Time) from KDYL Reporting Station
Broken Clouds Broken Clouds  
Wind Chill: 32°   Ceiling: 11000
Heat Index: 37°   Visibility: 10mi
Dew Point: 23°   Wind: 6mph
Humidity: 57%   Direction: 200°SSW
Pressure: 30.17"   Gusts: NA
Location:  40.27°N, 75.1°W
Report Text: KDYL 230854Z AUTO 20005KT 10SM BKN110 03/M05 A3017 RMK AO2 SLP223 T00281050 56007
Loading
Personal Weather Stations






























Interactive Weather Map New forecast layout! Learn more

10-Day Weather Forecast

Advertisements
Track Severe Weather on mobile